Time;durP1;ratioP1;P1;durP2;ratioP2;P2;SDS_P1;SDS_P2;PMS_P1;PMS_P2;Temp;Humidity;BMP_temperature;BMP_pressure;BME280_temperature;BME280_humidity;BME280_pressure;Samples;Min_cycle;Max_cycle;Signal;HPM_P1;HPM_P2
2022/10/19 00:05:48;;;;;;;;;;;11.20;99.90;;;;;;12547341;28;20007;-36
2022/10/19 00:11:50;;;;;;;;;;;10.70;99.90;;;;;;12549843;28;19929;-37
2022/10/19 00:17:52;;;;;;;;;;;10.80;99.90;;;;;;12559423;28;19925;-36
2022/10/19 00:23:53;;;;;;;;;;;10.70;99.90;;;;;;12538639;28;19929;-36
2022/10/19 00:29:55;;;;;;;;;;;10.70;99.90;;;;;;12549822;28;19947;-36
2022/10/19 00:35:57;;;;;;;;;;;10.50;99.90;;;;;;12540421;28;20009;-36
2022/10/19 00:42:00;;;;;;;;;;;10.60;99.90;;;;;;12554820;28;19925;-36
2022/10/19 00:48:02;;;;;;;;;;;10.60;99.90;;;;;;12548374;28;19931;-36
2022/10/19 00:54:05;;;;;;;;;;;10.50;99.90;;;;;;12556949;28;20271;-36
2022/10/19 01:00:07;;;;;;;;;;;10.50;99.90;;;;;;12539578;28;19939;-36
2022/10/19 01:06:11;;;;;;;;;;;10.30;99.90;;;;;;12513719;28;19924;-36
2022/10/19 01:12:15;;;;;;;;;;;10.30;99.90;;;;;;12554503;28;19928;-37
2022/10/19 01:18:26;;;;;;;;;;;10.20;99.90;;;;;;12546569;28;19928;-36
2022/10/19 01:24:47;;;;;;;;;;;10.20;99.90;;;;;;12544077;28;20269;-36
2022/10/19 01:30:55;;;;;;;;;;;10.10;99.90;;;;;;12552398;28;20372;-36
2022/10/19 01:37:01;;;;;;;;;;;10.10;99.90;;;;;;12534096;28;20394;-36
2022/10/19 01:43:09;;;;;;;;;;;10.00;99.90;;;;;;12547743;28;20266;-37
2022/10/19 01:49:31;;;;;;;;;;;10.00;99.90;;;;;;12525695;28;19951;-37
2022/10/19 01:55:33;;;;;;;;;;;9.80;99.90;;;;;;12550600;28;19973;-36
2022/10/19 02:01:37;;;;;;;;;;;9.80;99.90;;;;;;12546578;28;19925;-36
2022/10/19 02:07:41;;;;;;;;;;;9.90;99.90;;;;;;12555344;28;19928;-36
2022/10/19 02:13:43;;;;;;;;;;;9.80;99.90;;;;;;12543825;28;19925;-36
2022/10/19 02:19:45;;;;;;;;;;;9.50;99.90;;;;;;12543375;28;19925;-36
2022/10/19 02:25:47;;;;;;;;;;;9.30;99.90;;;;;;12540749;28;19963;-36
2022/10/19 02:31:50;;;;;;;;;;;9.40;99.90;;;;;;12568732;28;19930;-36
2022/10/19 02:37:51;;;;;;;;;;;9.70;99.90;;;;;;12561679;28;20353;-36
2022/10/19 02:43:58;;;;;;;;;;;9.60;99.90;;;;;;12544360;28;19968;-36
2022/10/19 02:50:00;;;;;;;;;;;9.80;99.90;;;;;;12549854;28;20289;-36
2022/10/19 02:56:01;;;;;;;;;;;9.80;99.90;;;;;;12553524;28;20372;-36
2022/10/19 03:02:03;;;;;;;;;;;9.80;99.90;;;;;;12551157;28;19925;-36
2022/10/19 03:08:05;;;;;;;;;;;10.10;99.90;;;;;;12547815;28;19951;-37
2022/10/19 03:14:06;;;;;;;;;;;10.20;99.90;;;;;;12561943;28;19933;-36
2022/10/19 03:20:09;;;;;;;;;;;10.30;99.90;;;;;;12545635;28;19925;-37
2022/10/19 03:26:12;;;;;;;;;;;10.30;99.90;;;;;;12554102;28;19924;-36
2022/10/19 03:32:14;;;;;;;;;;;10.40;99.90;;;;;;12556085;28;19925;-36
2022/10/19 03:38:16;;;;;;;;;;;10.40;99.90;;;;;;12555521;28;19929;-37
2022/10/19 03:44:18;;;;;;;;;;;10.50;99.90;;;;;;12557713;28;19939;-36
2022/10/19 03:50:20;;;;;;;;;;;10.50;99.90;;;;;;12544648;28;19928;-36
2022/10/19 03:56:22;;;;;;;;;;;10.40;99.90;;;;;;12554537;28;20272;-36
2022/10/19 04:02:24;;;;;;;;;;;10.40;99.90;;;;;;12520005;28;19935;-36
2022/10/19 04:08:26;;;;;;;;;;;10.20;99.90;;;;;;12538673;28;19928;-36
2022/10/19 04:14:28;;;;;;;;;;;10.20;99.90;;;;;;12540966;28;20568;-36
2022/10/19 04:20:41;;;;;;;;;;;10.20;99.90;;;;;;12548896;28;19925;-37
2022/10/19 04:26:45;;;;;;;;;;;10.20;99.90;;;;;;12549617;28;19932;-36
2022/10/19 04:32:46;;;;;;;;;;;10.30;99.90;;;;;;12554625;28;19933;-37
2022/10/19 04:38:48;;;;;;;;;;;10.30;99.90;;;;;;12538992;28;19924;-36
2022/10/19 04:44:50;;;;;;;;;;;10.40;99.90;;;;;;12543173;28;19987;-36
2022/10/19 04:50:53;;;;;;;;;;;10.20;99.90;;;;;;12532712;28;19932;-36
2022/10/19 04:56:55;;;;;;;;;;;10.40;99.90;;;;;;12540252;28;20289;-36
2022/10/19 05:02:56;;;;;;;;;;;10.60;99.90;;;;;;12537173;28;20289;-36
2022/10/19 05:08:58;;;;;;;;;;;10.50;99.90;;;;;;12554320;28;19932;-36
2022/10/19 05:15:00;;;;;;;;;;;10.60;99.90;;;;;;12536617;28;19925;-36
2022/10/19 05:21:10;;;;;;;;;;;10.50;99.90;;;;;;12547571;28;20376;-36
2022/10/19 05:27:12;;;;;;;;;;;10.50;99.90;;;;;;12548307;28;20296;-36
2022/10/19 05:33:13;;;;;;;;;;;10.50;99.90;;;;;;12546101;28;19977;-36
2022/10/19 05:39:16;;;;;;;;;;;10.30;99.90;;;;;;12543211;28;19993;-36
2022/10/19 05:45:17;;;;;;;;;;;10.30;99.90;;;;;;12531524;28;19925;-36
2022/10/19 05:51:20;;;;;;;;;;;10.10;99.90;;;;;;12527524;28;19932;-36
2022/10/19 05:57:21;;;;;;;;;;;10.10;99.90;;;;;;12551132;28;20246;-36
2022/10/19 06:03:25;;;;;;;;;;;10.30;99.90;;;;;;12541972;28;19951;-36
2022/10/19 06:09:27;;;;;;;;;;;10.30;99.90;;;;;;12549128;28;19928;-36
2022/10/19 06:15:31;;;;;;;;;;;10.30;99.90;;;;;;12544067;28;19932;-36
2022/10/19 06:21:33;;;;;;;;;;;10.30;99.90;;;;;;12552332;28;20288;-36
2022/10/19 06:27:35;;;;;;;;;;;10.30;99.90;;;;;;12542946;28;19925;-37
2022/10/19 06:33:38;;;;;;;;;;;10.30;99.90;;;;;;12536588;28;19924;-36
2022/10/19 06:39:40;;;;;;;;;;;10.40;99.90;;;;;;12541271;28;19936;-36
2022/10/19 06:45:41;;;;;;;;;;;10.50;99.90;;;;;;12554386;28;19929;-37
2022/10/19 06:51:43;;;;;;;;;;;10.60;99.90;;;;;;12535685;28;20012;-36
2022/10/19 06:57:45;;;;;;;;;;;10.60;99.90;;;;;;12546264;28;19925;-37
2022/10/19 07:03:48;;;;;;;;;;;10.60;99.90;;;;;;12545337;28;19952;-36
2022/10/19 07:09:52;;;;;;;;;;;10.50;99.90;;;;;;12565926;28;19981;-36
2022/10/19 07:15:57;;;;;;;;;;;10.60;99.90;;;;;;12555012;28;19931;-36
2022/10/19 07:22:00;;;;;;;;;;;10.70;99.90;;;;;;12555285;28;19932;-36
2022/10/19 07:28:02;;;;;;;;;;;10.80;99.90;;;;;;12557347;28;19944;-36
2022/10/19 07:34:04;;;;;;;;;;;10.80;99.90;;;;;;12546398;28;19956;-36
2022/10/19 07:40:06;;;;;;;;;;;10.90;99.90;;;;;;12555228;28;19951;-37
2022/10/19 07:46:10;;;;;;;;;;;10.90;99.90;;;;;;12524671;28;19925;-36
2022/10/19 07:52:11;;;;;;;;;;;10.80;99.90;;;;;;12547641;28;19960;-36
2022/10/19 07:58:13;;;;;;;;;;;11.00;99.90;;;;;;12560749;28;19929;-37
2022/10/19 08:04:15;;;;;;;;;;;11.00;99.90;;;;;;12553141;28;19928;-36
2022/10/19 08:10:37;;;;;;;;;;;11.10;99.90;;;;;;12542884;28;19933;-36
2022/10/19 08:16:40;;;;;;;;;;;11.20;99.90;;;;;;12552559;28;19924;-36
2022/10/19 08:22:44;;;;;;;;;;;11.20;99.90;;;;;;12555727;28;20379;-37
2022/10/19 08:28:46;;;;;;;;;;;11.20;99.90;;;;;;12544494;28;19929;-37
2022/10/19 08:34:47;;;;;;;;;;;11.20;99.90;;;;;;12552261;28;19977;-36
2022/10/19 08:40:49;;;;;;;;;;;11.30;99.90;;;;;;12543971;28;20381;-37
2022/10/19 08:46:51;;;;;;;;;;;11.40;99.90;;;;;;12548333;28;19932;-36
2022/10/19 08:53:01;;;;;;;;;;;11.60;99.90;;;;;;12546881;28;19970;-36
2022/10/19 08:59:21;;;;;;;;;;;11.80;99.90;;;;;;12541787;28;19928;-36
2022/10/19 09:05:31;;;;;;;;;;;11.70;99.90;;;;;;12552461;28;19944;-36
2022/10/19 09:11:37;;;;;;;;;;;11.70;99.90;;;;;;12546234;28;20063;-36
2022/10/19 09:17:39;;;;;;;;;;;11.90;99.90;;;;;;12557562;28;19932;-36
2022/10/19 09:24:00;;;;;;;;;;;12.00;99.90;;;;;;12551364;28;19928;-36
2022/10/19 09:30:22;;;;;;;;;;;12.10;99.90;;;;;;12513695;28;19940;-37
2022/10/19 09:36:28;;;;;;;;;;;12.30;99.90;;;;;;12501838;28;20433;-36
2022/10/19 09:42:55;;;;;;;;;;;12.20;99.90;;;;;;12487288;28;19925;-36
2022/10/19 09:48:59;;;;;;;;;;;12.00;99.90;;;;;;12489491;28;19929;-36
2022/10/19 09:55:03;;;;;;;;;;;12.00;99.90;;;;;;12495490;28;20082;-37
2022/10/19 10:01:05;;;;;;;;;;;11.80;99.90;;;;;;12490021;28;19929;-37
2022/10/19 10:07:12;;;;;;;;;;;11.70;99.90;;;;;;12496188;28;19974;-36
2022/10/19 10:13:16;;;;;;;;;;;11.60;99.90;;;;;;12494386;28;19925;-37
2022/10/19 10:19:18;;;;;;;;;;;11.70;99.90;;;;;;12515815;28;19925;-36
2022/10/19 10:25:33;;;;;;;;;;;11.80;99.90;;;;;;12496888;28;19929;-36
2022/10/19 10:31:35;;;;;;;;;;;11.90;99.90;;;;;;12506306;28;19947;-36
2022/10/19 10:37:42;;;;;;;;;;;11.80;99.90;;;;;;12550098;28;20325;-36
2022/10/19 10:44:05;;;;;;;;;;;12.00;99.90;;;;;;12569195;28;19945;-36
2022/10/19 10:50:15;;;;;;;;;;;12.10;99.90;;;;;;12554755;28;19947;-37
2022/10/19 10:56:27;;;;;;;;;;;12.40;99.90;;;;;;12505495;28;19935;-36
2022/10/19 11:02:48;;;;;;;;;;;12.50;99.90;;;;;;12554896;28;19929;-37
2022/10/19 11:08:55;;;;;;;;;;;12.20;99.90;;;;;;12558521;28;19935;-37
2022/10/19 11:15:12;;;;;;;;;;;12.40;99.90;;;;;;12556410;28;19928;-36
2022/10/19 11:21:18;;;;;;;;;;;13.30;99.90;;;;;;12542212;28;19937;-37
2022/10/19 11:27:26;;;;;;;;;;;13.60;99.90;;;;;;12563287;28;20303;-37
2022/10/19 11:33:40;;;;;;;;;;;13.00;99.90;;;;;;12547334;28;19929;-36
2022/10/19 11:40:01;;;;;;;;;;;12.80;99.90;;;;;;12540584;28;19974;-36
2022/10/19 11:46:08;;;;;;;;;;;12.80;99.90;;;;;;12554228;28;19925;-36
2022/10/19 11:52:23;;;;;;;;;;;13.10;99.90;;;;;;12555851;28;19928;-37
2022/10/19 11:58:33;;;;;;;;;;;12.80;99.90;;;;;;12552855;28;19928;-36
2022/10/19 12:04:35;;;;;;;;;;;12.80;99.90;;;;;;12545826;28;20070;-36
2022/10/19 12:10:41;;;;;;;;;;;12.80;99.90;;;;;;12562937;28;19932;-36
2022/10/19 12:16:45;;;;;;;;;;;12.70;99.90;;;;;;12552690;28;19925;-36
2022/10/19 12:22:48;;;;;;;;;;;12.60;99.90;;;;;;12564360;28;20399;-36
2022/10/19 12:28:55;;;;;;;;;;;12.50;99.90;;;;;;12526267;28;20266;-36
2022/10/19 12:35:07;;;;;;;;;;;12.50;99.90;;;;;;12549888;28;19970;-36
2022/10/19 12:41:22;;;;;;;;;;;12.50;99.90;;;;;;12546130;28;19971;-36
2022/10/19 12:47:24;;;;;;;;;;;12.70;99.90;;;;;;12515247;28;19928;-37
2022/10/19 12:53:29;;;;;;;;;;;12.70;99.90;;;;;;12553273;28;19997;-36
2022/10/19 12:59:35;;;;;;;;;;;12.80;99.90;;;;;;12543242;28;19929;-37
2022/10/19 13:05:37;;;;;;;;;;;12.90;99.90;;;;;;12554292;28;20055;-36
2022/10/19 13:11:59;;;;;;;;;;;12.80;99.90;;;;;;12558196;28;19931;-36
2022/10/19 13:18:01;;;;;;;;;;;12.50;99.90;;;;;;12543545;28;19967;-36
2022/10/19 13:24:24;;;;;;;;;;;12.40;99.90;;;;;;12547247;28;19974;-37
2022/10/19 13:30:35;;;;;;;;;;;12.40;99.90;;;;;;12551943;28;19984;-37
2022/10/19 13:36:39;;;;;;;;;;;12.20;99.90;;;;;;12542311;28;19950;-36
2022/10/19 13:42:41;;;;;;;;;;;12.20;99.90;;;;;;12550486;28;19974;-36
2022/10/19 13:48:43;;;;;;;;;;;12.40;99.90;;;;;;12543654;28;20392;-36
2022/10/19 13:55:02;;;;;;;;;;;12.30;99.90;;;;;;12521132;28;19924;-37
2022/10/19 14:01:04;;;;;;;;;;;12.20;99.90;;;;;;12561639;28;19924;-36
2022/10/19 14:07:15;;;;;;;;;;;12.30;99.90;;;;;;12556112;28;19925;-36
2022/10/19 14:13:17;;;;;;;;;;;12.20;99.90;;;;;;12545512;28;19924;-36
2022/10/19 14:19:25;;;;;;;;;;;12.20;99.90;;;;;;12559210;28;20352;-36
2022/10/19 14:25:28;;;;;;;;;;;12.30;99.90;;;;;;12559264;28;19929;-36
2022/10/19 14:31:32;;;;;;;;;;;12.20;99.90;;;;;;12540350;28;19936;-36
2022/10/19 14:37:35;;;;;;;;;;;12.10;99.90;;;;;;12562709;28;19936;-36
2022/10/19 14:43:37;;;;;;;;;;;12.10;99.90;;;;;;12550201;28;19928;-36
2022/10/19 14:49:39;;;;;;;;;;;12.20;99.90;;;;;;12552862;28;19932;-36
2022/10/19 14:55:41;;;;;;;;;;;12.10;99.90;;;;;;12559106;28;19925;-36
2022/10/19 15:01:47;;;;;;;;;;;12.20;99.90;;;;;;12552883;28;19974;-36
2022/10/19 15:07:50;;;;;;;;;;;12.20;99.90;;;;;;12550186;28;19928;-36
2022/10/19 15:14:08;;;;;;;;;;;12.10;99.90;;;;;;12557026;28;20281;-36
2022/10/19 15:20:21;;;;;;;;;;;12.10;99.90;;;;;;12525296;28;19925;-36
2022/10/19 15:26:23;;;;;;;;;;;12.10;99.90;;;;;;12553874;28;19932;-36
2022/10/19 15:32:28;;;;;;;;;;;12.10;99.90;;;;;;12550557;28;20034;-36
2022/10/19 15:38:32;;;;;;;;;;;12.00;99.90;;;;;;12551884;28;19977;-36
2022/10/19 15:44:41;;;;;;;;;;;11.80;99.90;;;;;;12561210;28;19928;-36
2022/10/19 15:50:44;;;;;;;;;;;11.60;99.90;;;;;;12557253;28;20372;-36
2022/10/19 15:56:49;;;;;;;;;;;11.60;99.90;;;;;;12554489;28;19966;-37
2022/10/19 16:02:51;;;;;;;;;;;11.40;99.90;;;;;;12549657;28;20413;-36
2022/10/19 16:08:52;;;;;;;;;;;11.40;99.90;;;;;;12547540;28;19929;-36
2022/10/19 16:14:54;;;;;;;;;;;11.40;99.90;;;;;;12558977;28;19924;-36
2022/10/19 16:20:57;;;;;;;;;;;11.50;99.90;;;;;;12557761;28;19933;-37
2022/10/19 16:26:58;;;;;;;;;;;11.30;99.90;;;;;;12553450;28;19932;-36
2022/10/19 16:33:00;;;;;;;;;;;11.10;99.90;;;;;;12547939;28;19925;-36
2022/10/19 16:39:03;;;;;;;;;;;11.10;99.90;;;;;;12545128;28;19924;-36
2022/10/19 16:45:05;;;;;;;;;;;11.10;99.90;;;;;;12553281;28;19924;-36
2022/10/19 16:51:09;;;;;;;;;;;10.90;99.90;;;;;;12552175;28;19936;-36
2022/10/19 16:57:11;;;;;;;;;;;10.80;99.90;;;;;;12530885;28;20710;-36
2022/10/19 17:03:13;;;;;;;;;;;10.80;99.90;;;;;;12553975;28;19932;-36
2022/10/19 17:09:15;;;;;;;;;;;10.70;99.90;;;;;;12548654;28;19929;-36
2022/10/19 17:15:37;;;;;;;;;;;10.60;99.90;;;;;;12541138;28;20430;-36
2022/10/19 17:21:44;;;;;;;;;;;10.60;99.90;;;;;;12551701;28;19929;-36
2022/10/19 17:27:48;;;;;;;;;;;10.50;99.90;;;;;;12553278;28;19929;-36
2022/10/19 17:33:51;;;;;;;;;;;10.20;99.90;;;;;;12542112;28;20380;-36
2022/10/19 17:39:53;;;;;;;;;;;10.20;99.90;;;;;;12543797;28;20012;-37
2022/10/19 17:45:58;;;;;;;;;;;10.20;99.90;;;;;;12552549;28;20384;-37
2022/10/19 17:52:00;;;;;;;;;;;10.10;99.90;;;;;;12523734;28;19978;-36
2022/10/19 17:58:01;;;;;;;;;;;10.00;99.90;;;;;;12547273;28;19928;-36
2022/10/19 18:04:03;;;;;;;;;;;9.90;99.90;;;;;;12546872;28;19936;-36
2022/10/19 18:10:05;;;;;;;;;;;9.90;99.90;;;;;;12555354;28;20326;-36
2022/10/19 18:16:09;;;;;;;;;;;10.50;99.90;;;;;;12525566;28;20372;-36
2022/10/19 18:22:11;;;;;;;;;;;10.50;99.90;;;;;;12549773;28;19925;-36
2022/10/19 18:28:12;;;;;;;;;;;10.40;99.90;;;;;;12550994;28;19925;-36
2022/10/19 18:34:14;;;;;;;;;;;10.20;99.90;;;;;;12538006;28;20278;-36
2022/10/19 18:40:16;;;;;;;;;;;9.80;99.90;;;;;;12549700;28;19928;-36
2022/10/19 18:46:19;;;;;;;;;;;9.60;99.90;;;;;;12542415;28;19929;-37
2022/10/19 18:52:21;;;;;;;;;;;9.50;99.90;;;;;;12554763;28;19969;-36
2022/10/19 18:58:23;;;;;;;;;;;9.50;99.90;;;;;;12544069;28;19925;-36
2022/10/19 19:04:25;;;;;;;;;;;9.70;99.90;;;;;;12548299;28;19928;-36
2022/10/19 19:10:26;;;;;;;;;;;9.90;99.90;;;;;;12557059;28;19931;-37
2022/10/19 19:16:31;;;;;;;;;;;9.80;99.90;;;;;;12553480;28;19924;-36
2022/10/19 19:22:33;;;;;;;;;;;9.40;99.90;;;;;;12549857;28;20346;-36
2022/10/19 19:28:35;;;;;;;;;;;9.40;99.90;;;;;;12559612;28;19979;-36
2022/10/19 19:34:42;;;;;;;;;;;9.50;99.90;;;;;;12543429;28;20008;-36
2022/10/19 19:40:44;;;;;;;;;;;9.50;99.90;;;;;;12551449;28;20406;-36
2022/10/19 19:46:46;;;;;;;;;;;9.40;99.90;;;;;;12546530;28;19929;-36
2022/10/19 19:52:47;;;;;;;;;;;9.50;99.90;;;;;;12549002;28;19936;-36
2022/10/19 19:58:53;;;;;;;;;;;9.50;99.90;;;;;;12552106;28;20277;-36
2022/10/19 20:04:54;;;;;;;;;;;9.80;99.90;;;;;;12554789;28;19974;-37
2022/10/19 20:10:59;;;;;;;;;;;9.70;99.90;;;;;;12550733;28;19924;-36
2022/10/19 20:17:01;;;;;;;;;;;9.50;99.90;;;;;;12549815;28;19936;-36
2022/10/19 20:23:03;;;;;;;;;;;9.50;99.90;;;;;;12553134;28;19935;-36
2022/10/19 20:29:05;;;;;;;;;;;9.20;99.90;;;;;;12558158;28;19929;-36
2022/10/19 20:35:07;;;;;;;;;;;9.20;99.90;;;;;;12525892;28;19929;-36
2022/10/19 20:41:09;;;;;;;;;;;9.50;99.90;;;;;;12548074;28;19924;-37
2022/10/19 20:47:11;;;;;;;;;;;9.50;99.90;;;;;;12556727;28;20014;-36
2022/10/19 20:53:12;;;;;;;;;;;9.30;99.90;;;;;;12551468;28;19931;-36
2022/10/19 20:59:16;;;;;;;;;;;9.40;99.90;;;;;;12559360;28;19932;-36
2022/10/19 21:05:18;;;;;;;;;;;9.40;99.90;;;;;;12551685;28;19935;-36
2022/10/19 21:11:21;;;;;;;;;;;9.40;99.90;;;;;;12552790;28;19940;-36
2022/10/19 21:17:22;;;;;;;;;;;9.10;99.90;;;;;;12548591;28;19933;-36
2022/10/19 21:23:24;;;;;;;;;;;9.10;99.90;;;;;;12551027;28;19925;-36
2022/10/19 21:29:26;;;;;;;;;;;9.10;99.90;;;;;;12551244;28;19993;-36
2022/10/19 21:35:28;;;;;;;;;;;9.00;99.90;;;;;;12556826;28;19924;-36
2022/10/19 21:41:31;;;;;;;;;;;9.20;99.90;;;;;;12551662;28;20381;-36
2022/10/19 21:47:34;;;;;;;;;;;9.10;99.90;;;;;;12543592;28;19925;-36
2022/10/19 21:53:36;;;;;;;;;;;9.30;99.90;;;;;;12546844;28;19972;-36
2022/10/19 21:59:38;;;;;;;;;;;9.30;99.90;;;;;;12543747;28;19928;-36
2022/10/19 22:05:48;;;;;;;;;;;9.30;99.90;;;;;;12559694;28;19977;-36
2022/10/19 22:11:49;;;;;;;;;;;9.30;99.90;;;;;;12526334;28;20454;-36
2022/10/19 22:17:51;;;;;;;;;;;9.10;99.90;;;;;;12543382;28;19947;-36
2022/10/19 22:23:55;;;;;;;;;;;8.70;99.90;;;;;;12549522;28;19971;-36
2022/10/19 22:29:57;;;;;;;;;;;8.40;99.90;;;;;;12533458;28;19931;-36
2022/10/19 22:35:59;;;;;;;;;;;8.40;99.90;;;;;;12556114;28;19935;-36
2022/10/19 22:42:01;;;;;;;;;;;8.40;99.90;;;;;;12556207;28;20015;-36
2022/10/19 22:48:03;;;;;;;;;;;8.50;99.90;;;;;;12566476;28;19924;-36
2022/10/19 22:54:05;;;;;;;;;;;8.50;99.90;;;;;;12552292;28;20316;-36
2022/10/19 23:00:07;;;;;;;;;;;8.80;99.90;;;;;;12559030;28;20292;-36
2022/10/19 23:06:10;;;;;;;;;;;8.90;99.90;;;;;;12505918;28;19974;-36
2022/10/19 23:12:12;;;;;;;;;;;8.50;99.90;;;;;;12553710;28;19966;-36
2022/10/19 23:18:14;;;;;;;;;;;8.80;99.90;;;;;;12555038;28;20435;-36
2022/10/19 23:24:16;;;;;;;;;;;8.90;99.90;;;;;;12551879;28;19936;-36
2022/10/19 23:30:18;;;;;;;;;;;8.70;99.90;;;;;;12560100;28;19931;-36
2022/10/19 23:36:27;;;;;;;;;;;8.60;99.90;;;;;;12541679;28;19932;-36
2022/10/19 23:42:29;;;;;;;;;;;8.50;99.90;;;;;;12551890;28;19935;-36
2022/10/19 23:48:30;;;;;;;;;;;8.30;99.90;;;;;;12524062;28;19936;-36
2022/10/19 23:54:32;;;;;;;;;;;8.20;99.90;;;;;;12544281;28;19999;-36
